Time,TemperatureF,DewpointF,PressureIn,WindDirection,WindDirectionDegrees,WindSpeedMPH,WindSpeedGustMPH,Humidity,HourlyPrecipIn,Conditions,Clouds,dailyrainin,SoftwareType,DateUTC
2013-04-24 00:00:00,28.5,24.0,30.24,NW,309,2.0,4.0,83,0.00,,SKC,0.00,VWS V14.01,2013-04-24 05:00:00,
2013-04-24 00:05:00,28.6,24.1,30.24,NW,309,1.0,4.0,83,0.00,,SKC,0.00,VWS V14.01,2013-04-24 05:05:00,
2013-04-24 00:10:00,28.7,24.2,30.24,NW,309,4.0,4.0,83,0.00,,SKC,0.00,VWS V14.01,2013-04-24 05:10:00,
2013-04-24 00:15:00,28.7,24.2,30.24,NW,309,3.0,3.0,83,0.00,,SKC,0.00,VWS V14.01,2013-04-24 05:15:00,
2013-04-24 00:20:00,28.6,24.1,30.24,NW,309,1.0,4.0,83,0.00,,SKC,0.00,VWS V14.01,2013-04-24 05:20:00,
2013-04-24 00:25:00,28.3,23.8,30.24,NW,309,2.0,2.0,83,0.00,,SKC,0.00,VWS V14.01,2013-04-24 05:25:00,
2013-04-24 00:30:00,28.2,23.7,30.24,NW,309,1.0,2.0,83,0.00,,SKC,0.00,VWS V14.01,2013-04-24 05:30:00,
2013-04-24 00:35:00,28.2,23.7,30.24,NW,309,3.0,4.0,83,0.00,,SKC,0.00,VWS V14.01,2013-04-24 05:35:00,
2013-04-24 00:40:00,28.3,23.8,30.24,NW,308,1.0,2.0,83,0.00,,SKC,0.00,VWS V14.01,2013-04-24 05:40:00,
2013-04-24 00:45:00,28.4,23.9,30.24,NW,308,0.0,1.0,83,0.00,,SKC,0.00,VWS V14.01,2013-04-24 05:45:00,
2013-04-24 00:51:00,28.4,23.9,30.24,NW,308,3.0,3.0,83,0.00,,SKC,0.00,VWS V14.01,2013-04-24 05:51:00,
2013-04-24 00:56:00,28.3,23.8,30.25,NW,308,2.0,3.0,83,0.00,,SKC,0.00,VWS V14.01,2013-04-24 05:56:00,
2013-04-24 01:01:00,28.3,23.8,30.25,NW,308,1.0,2.0,83,0.00,,SKC,0.00,VWS V14.01,2013-04-24 06:01:00,
2013-04-24 01:06:00,28.2,23.7,30.25,NW,308,3.0,3.0,83,0.00,,SKC,0.00,VWS V14.01,2013-04-24 06:06:00,
2013-04-24 01:11:00,28.1,23.6,30.24,NW,308,1.0,2.0,83,0.00,,SKC,0.00,VWS V14.01,2013-04-24 06:11:00,
2013-04-24 01:16:00,28.1,23.6,30.24,NW,308,3.0,3.0,83,0.00,,SKC,0.00,VWS V14.01,2013-04-24 06:16:00,
2013-04-24 01:21:00,28.0,23.5,30.24,NW,308,2.0,4.0,83,0.00,,SKC,0.00,VWS V14.01,2013-04-24 06:21:00,
2013-04-24 01:26:00,28.0,23.5,30.24,NW,307,3.0,3.0,83,0.00,,SKC,0.00,VWS V14.01,2013-04-24 06:26:00,
2013-04-24 01:31:00,28.1,23.6,30.24,NW,307,0.0,1.0,83,0.00,,SKC,0.00,VWS V14.01,2013-04-24 06:31:00,
2013-04-24 01:36:00,28.1,23.6,30.24,NW,307,0.0,1.0,83,0.00,,SKC,0.00,VWS V14.01,2013-04-24 06:36:00,
2013-04-24 01:41:00,28.0,23.5,30.24,NW,307,1.0,1.0,83,0.00,,SKC,0.00,VWS V14.01,2013-04-24 06:41:00,
2013-04-24 01:46:00,28.0,23.5,30.24,NW,307,1.0,1.0,83,0.00,,SKC,0.00,VWS V14.01,2013-04-24 06:46:00,
2013-04-24 01:51:00,27.8,23.3,30.23,NW,307,1.0,2.0,83,0.00,,SKC,0.00,VWS V14.01,2013-04-24 06:51:00,
2013-04-24 01:56:00,27.7,23.2,30.24,NW,307,1.0,2.0,83,0.00,,SKC,0.00,VWS V14.01,2013-04-24 06:56:00,
2013-04-24 02:01:00,27.6,23.1,30.23,NW,305,2.0,2.0,83,0.00,,SKC,0.00,VWS V14.01,2013-04-24 07:01:00,
2013-04-24 02:06:00,27.7,23.2,30.23,NW,304,2.0,3.0,83,0.00,,SKC,0.00,VWS V14.01,2013-04-24 07:06:00,
2013-04-24 02:11:00,27.7,23.2,30.23,NW,304,2.0,3.0,83,0.00,,SKC,0.00,VWS V14.01,2013-04-24 07:11:00,
2013-04-24 02:16:00,27.7,23.2,30.23,WNW,302,3.0,3.0,83,0.00,,SKC,0.00,VWS V14.01,2013-04-24 07:16:00,
2013-04-24 02:21:00,27.7,23.2,30.22,WNW,302,2.0,2.0,83,0.00,,SKC,0.00,VWS V14.01,2013-04-24 07:21:00,
2013-04-24 02:26:00,27.7,23.2,30.22,WNW,302,1.0,3.0,83,0.00,,SKC,0.00,VWS V14.01,2013-04-24 07:26:00,
2013-04-24 02:31:00,27.6,23.1,30.22,WNW,302,1.0,2.0,83,0.00,,SKC,0.00,VWS V14.01,2013-04-24 07:31:00,
2013-04-24 02:36:00,27.5,23.0,30.22,WNW,300,4.0,5.0,83,0.00,,SKC,0.00,VWS V14.01,2013-04-24 07:36:00,
2013-04-24 02:41:00,27.5,23.0,30.22,WNW,298,2.0,4.0,83,0.00,,SKC,0.00,VWS V14.01,2013-04-24 07:41:00,
2013-04-24 02:46:00,27.4,22.9,30.22,WNW,298,2.0,4.0,83,0.00,,SKC,0.00,VWS V14.01,2013-04-24 07:46:00,
2013-04-24 02:51:00,27.3,22.8,30.22,WNW,296,3.0,4.0,83,0.00,,SKC,0.00,VWS V14.01,2013-04-24 07:51:00,
2013-04-24 02:56:00,27.2,22.7,30.21,WNW,295,3.0,5.0,83,0.00,,SKC,0.00,VWS V14.01,2013-04-24 07:56:00,
2013-04-24 03:01:00,27.1,22.6,30.21,WNW,295,2.0,3.0,83,0.00,,SKC,0.00,VWS V14.01,2013-04-24 08:01:00,
2013-04-24 03:06:00,27.0,22.5,30.21,WNW,295,2.0,3.0,83,0.00,,SKC,0.00,VWS V14.01,2013-04-24 08:06:00,
2013-04-24 03:11:00,26.9,22.7,30.21,WNW,295,3.0,4.0,84,0.00,,SKC,0.00,VWS V14.01,2013-04-24 08:11:00,
2013-04-24 03:16:00,26.7,22.5,30.21,WNW,294,2.0,4.0,84,0.00,,SKC,0.00,VWS V14.01,2013-04-24 08:16:00,
2013-04-24 03:21:00,26.7,22.5,30.21,WNW,293,4.0,4.0,84,0.00,,SKC,0.00,VWS V14.01,2013-04-24 08:21:00,
2013-04-24 03:26:00,26.7,22.5,30.21,WNW,292,3.0,5.0,84,0.00,,SKC,0.00,VWS V14.01,2013-04-24 08:26:00,
2013-04-24 03:31:00,26.7,22.5,30.21,WNW,292,3.0,4.0,84,0.00,,SKC,0.00,VWS V14.01,2013-04-24 08:31:00,
2013-04-24 03:36:00,26.6,22.4,30.21,WNW,292,2.0,3.0,84,0.00,,SKC,0.00,VWS V14.01,2013-04-24 08:36:00,
2013-04-24 03:41:00,26.6,22.4,30.21,WNW,292,3.0,4.0,84,0.00,,SKC,0.00,VWS V14.01,2013-04-24 08:41:00,
2013-04-24 03:46:00,26.7,22.5,30.21,WNW,291,3.0,3.0,84,0.00,,SKC,0.00,VWS V14.01,2013-04-24 08:46:00,
2013-04-24 03:51:00,26.6,22.4,30.21,WNW,291,3.0,3.0,84,0.00,,SKC,0.00,VWS V14.01,2013-04-24 08:51:00,
2013-04-24 03:56:00,26.6,22.4,30.21,WNW,291,1.0,3.0,84,0.00,,SKC,0.00,VWS V14.01,2013-04-24 08:56:00,
2013-04-24 04:01:00,26.6,22.4,30.21,WNW,291,2.0,3.0,84,0.00,,SKC,0.00,VWS V14.01,2013-04-24 09:01:00,
2013-04-24 04:07:00,26.6,22.7,30.21,WNW,291,2.0,2.0,85,0.00,,SKC,0.00,VWS V14.01,2013-04-24 09:07:00,
2013-04-24 04:12:00,26.6,22.7,30.21,WNW,291,3.0,3.0,85,0.00,,SKC,0.00,VWS V14.01,2013-04-24 09:12:00,
2013-04-24 04:17:00,26.6,22.7,30.21,WNW,291,0.0,1.0,85,0.00,,SKC,0.00,VWS V14.01,2013-04-24 09:17:00,
2013-04-24 04:22:00,26.6,22.7,30.21,WNW,291,1.0,2.0,85,0.00,,SKC,0.00,VWS V14.01,2013-04-24 09:22:00,
2013-04-24 04:27:00,26.7,22.8,30.21,WNW,291,2.0,2.0,85,0.00,,SKC,0.00,VWS V14.01,2013-04-24 09:27:00,
2013-04-24 04:32:00,26.7,22.8,30.21,WNW,291,2.0,3.0,85,0.00,,SKC,0.00,VWS V14.01,2013-04-24 09:32:00,
2013-04-24 04:37:00,26.7,22.8,30.21,WNW,291,3.0,3.0,85,0.00,,SKC,0.00,VWS V14.01,2013-04-24 09:37:00,
2013-04-24 04:42:00,26.7,22.8,30.21,WNW,291,1.0,2.0,85,0.00,,SKC,0.00,VWS V14.01,2013-04-24 09:42:00,
2013-04-24 04:47:00,26.7,22.8,30.21,WNW,291,2.0,3.0,85,0.00,,SKC,0.00,VWS V14.01,2013-04-24 09:47:00,
2013-04-24 04:52:00,26.9,23.0,30.21,WNW,291,2.0,2.0,85,0.00,,SKC,0.00,VWS V14.01,2013-04-24 09:52:00,
2013-04-24 04:57:00,26.9,23.0,30.21,WNW,291,1.0,1.0,85,0.00,,SKC,0.00,VWS V14.01,2013-04-24 09:57:00,
2013-04-24 05:02:00,27.0,23.1,30.21,WNW,291,1.0,1.0,85,0.00,,SKC,0.00,VWS V14.01,2013-04-24 10:02:00,
2013-04-24 05:07:00,27.0,23.1,30.21,WNW,291,2.0,2.0,85,0.00,,SKC,0.00,VWS V14.01,2013-04-24 10:07:00,
2013-04-24 05:12:00,26.9,23.0,30.22,WNW,291,0.0,0.0,85,0.00,,SKC,0.00,VWS V14.01,2013-04-24 10:12:00,
2013-04-24 05:17:00,26.9,23.0,30.21,WNW,291,2.0,2.0,85,0.00,,SKC,0.00,VWS V14.01,2013-04-24 10:17:00,
2013-04-24 05:22:00,27.0,23.1,30.22,WNW,291,2.0,2.0,85,0.00,,SKC,0.00,VWS V14.01,2013-04-24 10:22:00,
2013-04-24 05:27:00,27.1,23.2,30.21,WNW,291,3.0,4.0,85,0.00,,SKC,0.00,VWS V14.01,2013-04-24 10:27:00,
2013-04-24 05:32:00,27.3,23.4,30.21,WNW,291,1.0,3.0,85,0.00,,SKC,0.00,VWS V14.01,2013-04-24 10:32:00,
2013-04-24 05:37:00,27.4,23.5,30.21,WNW,291,3.0,3.0,85,0.00,,SKC,0.00,VWS V14.01,2013-04-24 10:37:00,
2013-04-24 05:42:00,27.5,23.3,30.21,WNW,291,1.0,2.0,84,0.00,,SKC,0.00,VWS V14.01,2013-04-24 10:42:00,
2013-04-24 05:47:00,27.4,23.2,30.20,WNW,291,1.0,3.0,84,0.00,,SKC,0.00,VWS V14.01,2013-04-24 10:47:00,
2013-04-24 05:52:00,27.4,23.2,30.21,WNW,291,4.0,5.0,84,0.00,,SKC,0.00,VWS V14.01,2013-04-24 10:52:00,
2013-04-24 05:57:00,27.5,23.3,30.20,WNW,291,2.0,5.0,84,0.00,,SKC,0.00,VWS V14.01,2013-04-24 10:57:00,
2013-04-24 06:02:00,27.5,23.3,30.20,WNW,290,5.0,5.0,84,0.00,,SKC,0.00,VWS V14.01,2013-04-24 11:02:00,
2013-04-24 06:07:00,27.5,23.3,30.20,WNW,290,4.0,4.0,84,0.00,,SKC,0.00,VWS V14.01,2013-04-24 11:07:00,
2013-04-24 06:12:00,27.3,22.8,30.20,WNW,290,2.0,4.0,83,0.00,,SKC,0.00,VWS V14.01,2013-04-24 11:12:00,
2013-04-24 06:17:00,27.1,22.6,30.21,WNW,290,3.0,3.0,83,0.00,,SKC,0.00,VWS V14.01,2013-04-24 11:17:00,
2013-04-24 06:22:00,27.2,23.0,30.21,WNW,288,4.0,4.0,84,0.00,,SKC,0.00,VWS V14.01,2013-04-24 11:22:00,
2013-04-24 06:27:00,27.4,23.2,30.21,WNW,288,6.0,6.0,84,0.00,,SKC,0.00,VWS V14.01,2013-04-24 11:27:00,
2013-04-24 06:32:00,27.5,23.3,30.21,WNW,288,4.0,5.0,84,0.00,,SKC,0.00,VWS V14.01,2013-04-24 11:32:00,
2013-04-24 06:37:00,27.6,23.4,30.21,WNW,287,4.0,6.0,84,0.00,,SKC,0.00,VWS V14.01,2013-04-24 11:37:00,
2013-04-24 06:42:00,27.7,23.2,30.21,WNW,284,2.0,4.0,83,0.00,,SKC,0.00,VWS V14.01,2013-04-24 11:42:00,
2013-04-24 06:47:00,27.6,23.1,30.21,WNW,284,3.0,3.0,83,0.00,,SKC,0.00,VWS V14.01,2013-04-24 11:47:00,
2013-04-24 06:52:00,27.5,23.0,30.21,WNW,284,2.0,4.0,83,0.00,,SKC,0.00,VWS V14.01,2013-04-24 11:52:00,
2013-04-24 06:57:00,27.5,23.0,30.21,WNW,284,2.0,3.0,83,0.00,,SKC,0.00,VWS V14.01,2013-04-24 11:57:00,
2013-04-24 07:02:00,27.4,22.9,30.21,WNW,284,1.0,3.0,83,0.00,,SKC,0.00,VWS V14.01,2013-04-24 12:02:00,
2013-04-24 07:07:00,27.4,23.2,30.21,WNW,284,3.0,4.0,84,0.00,,SKC,0.00,VWS V14.01,2013-04-24 12:07:00,
2013-04-24 07:12:00,27.6,23.4,30.21,WNW,284,2.0,4.0,84,0.00,,SKC,0.00,VWS V14.01,2013-04-24 12:12:00,
2013-04-24 07:17:00,27.8,23.3,30.21,WNW,284,0.0,3.0,83,0.00,,SKC,0.00,VWS V14.01,2013-04-24 12:17:00,
2013-04-24 07:22:00,27.9,23.4,30.22,WNW,284,2.0,2.0,83,0.00,,SKC,0.00,VWS V14.01,2013-04-24 12:22:00,
2013-04-24 07:27:00,28.0,23.5,30.22,WNW,284,0.0,2.0,83,0.00,,SKC,0.00,VWS V14.01,2013-04-24 12:27:00,
2013-04-24 07:32:00,28.1,23.6,30.22,WNW,284,3.0,5.0,83,0.00,,SKC,0.00,VWS V14.01,2013-04-24 12:32:00,
2013-04-24 07:37:00,28.2,24.0,30.21,WNW,284,1.0,1.0,84,0.00,,SKC,0.00,VWS V14.01,2013-04-24 12:37:00,
2013-04-24 07:42:00,28.4,24.2,30.22,West,281,4.0,4.0,84,0.00,,SKC,0.00,VWS V14.01,2013-04-24 12:42:00,
2013-04-24 07:47:00,28.7,24.2,30.22,West,280,4.0,4.0,83,0.00,,SKC,0.00,VWS V14.01,2013-04-24 12:47:00,
2013-04-24 07:52:00,29.0,24.8,30.21,West,279,3.0,4.0,84,0.00,,SKC,0.00,VWS V14.01,2013-04-24 12:52:00,
2013-04-24 07:57:00,29.4,25.2,30.21,West,279,3.0,4.0,84,0.00,,SKC,0.00,VWS V14.01,2013-04-24 12:57:00,
2013-04-24 08:02:00,29.7,25.2,30.22,West,278,7.0,7.0,83,0.00,,SKC,0.00,VWS V14.01,2013-04-24 13:02:00,
2013-04-24 08:07:00,30.1,25.6,30.22,West,277,4.0,5.0,83,0.00,,SKC,0.00,VWS V14.01,2013-04-24 13:07:00,
2013-04-24 08:13:00,30.4,25.9,30.22,West,277,3.0,3.0,83,0.00,,SKC,0.00,VWS V14.01,2013-04-24 13:13:00,
2013-04-24 08:18:00,30.8,26.3,30.21,West,277,4.0,5.0,83,0.00,,SKC,0.00,VWS V14.01,2013-04-24 13:18:00,
2013-04-24 08:23:00,31.2,26.6,30.21,West,277,5.0,6.0,83,0.00,,SKC,0.00,VWS V14.01,2013-04-24 13:23:00,
2013-04-24 08:28:00,31.7,27.1,30.21,West,276,4.0,5.0,83,0.00,,SKC,0.00,VWS V14.01,2013-04-24 13:28:00,
2013-04-24 08:33:00,32.2,27.6,30.22,West,274,3.0,7.0,83,0.00,,SKC,0.00,VWS V14.01,2013-04-24 13:33:00,
2013-04-24 08:38:00,32.5,27.6,30.22,West,273,3.0,5.0,82,0.00,,SKC,0.00,VWS V14.01,2013-04-24 13:38:00,
2013-04-24 08:43:00,32.9,28.0,30.21,West,270,3.0,4.0,82,0.00,,SKC,0.00,VWS V14.01,2013-04-24 13:43:00,
2013-04-24 08:48:00,33.4,28.2,30.21,West,267,6.0,7.0,81,0.00,,SKC,0.00,VWS V14.01,2013-04-24 13:48:00,
2013-04-24 08:53:00,33.8,28.6,30.21,West,267,2.0,4.0,81,0.00,,SKC,0.00,VWS V14.01,2013-04-24 13:53:00,
2013-04-24 08:58:00,34.3,28.8,30.22,West,259,6.0,7.0,80,0.00,,SKC,0.00,VWS V14.01,2013-04-24 13:58:00,
2013-04-24 09:03:00,34.6,28.8,30.21,WSW,258,7.0,7.0,79,0.00,,SKC,0.00,VWS V14.01,2013-04-24 14:03:00,
2013-04-24 09:08:00,34.9,29.1,30.21,West,263,5.0,6.0,79,0.00,,SKC,0.00,VWS V14.01,2013-04-24 14:08:00,
2013-04-24 09:13:00,35.3,29.5,30.21,WSW,250,5.0,7.0,79,0.00,,SKC,0.00,VWS V14.01,2013-04-24 14:13:00,
2013-04-24 09:18:00,35.7,29.5,30.21,WSW,257,9.0,9.0,78,0.00,,SKC,0.00,VWS V14.01,2013-04-24 14:18:00,
2013-04-24 09:23:00,36.1,29.6,30.21,WSW,238,11.0,11.0,77,0.00,,SKC,0.00,VWS V14.01,2013-04-24 14:23:00,
2013-04-24 09:28:00,36.5,29.7,30.20,WSW,238,4.0,7.0,76,0.00,,SKC,0.00,VWS V14.01,2013-04-24 14:28:00,
2013-04-24 09:33:00,36.8,30.0,30.20,WSW,254,5.0,9.0,76,0.00,,SKC,0.00,VWS V14.01,2013-04-24 14:33:00,
2013-04-24 09:38:00,37.1,29.9,30.20,WSW,242,3.0,8.0,75,0.00,,SKC,0.00,VWS V14.01,2013-04-24 14:38:00,
2013-04-24 09:43:00,37.5,30.3,30.20,WSW,240,6.0,7.0,75,0.00,,SKC,0.00,VWS V14.01,2013-04-24 14:43:00,
2013-04-24 09:48:00,37.8,30.6,30.20,SW,221,6.0,8.0,75,0.00,,SKC,0.00,VWS V14.01,2013-04-24 14:48:00,
2013-04-24 09:54:00,38.0,30.5,30.20,SSW,211,5.0,5.0,74,0.00,,SKC,0.00,VWS V14.01,2013-04-24 14:54:00,
2013-04-24 09:59:00,38.4,30.9,30.20,SW,221,5.0,8.0,74,0.00,,SKC,0.00,VWS V14.01,2013-04-24 14:59:00,
2013-04-24 10:04:00,38.8,30.9,30.20,SW,215,7.0,10.0,73,0.00,,SKC,0.00,VWS V14.01,2013-04-24 15:04:00,
2013-04-24 10:09:00,39.4,31.8,30.20,SW,226,8.0,10.0,74,0.00,,SKC,0.00,VWS V14.01,2013-04-24 15:09:00,
2013-04-24 10:14:00,39.6,31.3,30.20,SSW,208,5.0,9.0,72,0.00,,SKC,0.00,VWS V14.01,2013-04-24 15:14:00,
2013-04-24 10:19:00,40.0,32.1,30.20,SW,217,7.0,7.0,73,0.00,,SKC,0.00,VWS V14.01,2013-04-24 15:19:00,
2013-04-24 10:24:00,40.5,31.9,30.20,WSW,251,3.0,13.0,71,0.00,,SKC,0.00,VWS V14.01,2013-04-24 15:24:00,
2013-04-24 10:29:00,41.1,31.7,30.20,SW,229,9.0,10.0,69,0.00,,SKC,0.00,VWS V14.01,2013-04-24 15:29:00,
2013-04-24 10:34:00,41.7,31.9,30.20,SW,221,5.0,7.0,68,0.00,,SKC,0.00,VWS V14.01,2013-04-24 15:34:00,
2013-04-24 10:39:00,42.0,31.9,30.19,WSW,250,6.0,10.0,67,0.00,,SKC,0.00,VWS V14.01,2013-04-24 15:39:00,
2013-04-24 10:44:00,42.4,32.6,30.19,SSW,209,6.0,11.0,68,0.00,,SKC,0.00,VWS V14.01,2013-04-24 15:44:00,
2013-04-24 10:49:00,42.9,33.1,30.19,WSW,238,13.0,13.0,68,0.00,,SKC,0.00,VWS V14.01,2013-04-24 15:49:00,
2013-04-24 10:54:00,43.3,33.1,30.19,SW,228,11.0,12.0,67,0.00,,SKC,0.00,VWS V14.01,2013-04-24 15:54:00,
2013-04-24 10:59:00,43.6,32.2,30.19,WSW,245,6.0,7.0,64,0.00,,SKC,0.00,VWS V14.01,2013-04-24 15:59:00,
2013-04-24 11:05:00,44.0,31.8,30.19,WSW,237,11.0,11.0,62,0.00,,SKC,0.00,VWS V14.01,2013-04-24 16:05:00,
2013-04-24 11:10:00,44.4,32.2,30.19,SW,217,9.0,14.0,62,0.00,,SKC,0.00,VWS V14.01,2013-04-24 16:10:00,
2013-04-24 11:15:00,44.5,31.5,30.18,West,264,7.0,7.0,60,0.00,,SKC,0.00,VWS V14.01,2013-04-24 16:15:00,
2013-04-24 11:20:00,44.9,31.9,30.19,WSW,257,4.0,6.0,60,0.00,,SKC,0.00,VWS V14.01,2013-04-24 16:20:00,
2013-04-24 11:25:00,45.2,31.3,30.18,SW,232,9.0,9.0,58,0.00,,SKC,0.00,VWS V14.01,2013-04-24 16:25:00,
2013-04-24 11:30:00,45.4,31.1,30.18,SW,228,9.0,11.0,57,0.00,,SKC,0.00,VWS V14.01,2013-04-24 16:30:00,
2013-04-24 11:35:00,45.7,31.8,30.18,WSW,239,11.0,12.0,58,0.00,,SKC,0.00,VWS V14.01,2013-04-24 16:35:00,
2013-04-24 11:40:00,45.9,31.5,30.18,SW,234,11.0,11.0,57,0.00,,SKC,0.00,VWS V14.01,2013-04-24 16:40:00,
2013-04-24 11:45:00,46.1,30.4,30.18,West,279,16.0,16.0,54,0.00,,SKC,0.00,VWS V14.01,2013-04-24 16:45:00,
2013-04-24 11:50:00,46.6,30.9,30.18,SW,230,10.0,14.0,54,0.00,,SKC,0.00,VWS V14.01,2013-04-24 16:50:00,
2013-04-24 11:55:00,47.0,30.8,30.17,SW,231,11.0,16.0,53,0.00,,SKC,0.00,VWS V14.01,2013-04-24 16:55:00,
2013-04-24 12:00:00,47.6,31.8,30.17,WSW,258,9.0,10.0,54,0.00,,SKC,0.00,VWS V14.01,2013-04-24 17:00:00,
2013-04-24 12:05:00,47.9,30.2,30.17,West,271,6.0,11.0,50,0.00,,SKC,0.00,VWS V14.01,2013-04-24 17:05:00,
2013-04-24 12:10:00,47.8,28.6,30.17,WSW,256,6.0,10.0,47,0.00,,SKC,0.00,VWS V14.01,2013-04-24 17:10:00,
2013-04-24 12:15:00,48.4,31.6,30.17,WSW,241,10.0,10.0,52,0.00,,SKC,0.00,VWS V14.01,2013-04-24 17:15:00,
2013-04-24 12:20:00,48.6,30.8,30.16,WSW,244,6.0,13.0,50,0.00,,SKC,0.00,VWS V14.01,2013-04-24 17:20:00,
2013-04-24 12:25:00,48.7,30.4,30.16,West,268,10.0,10.0,49,0.00,,SKC,0.00,VWS V14.01,2013-04-24 17:25:00,
2013-04-24 12:30:00,49.0,30.7,30.15,WSW,255,9.0,9.0,49,0.00,,SKC,0.00,VWS V14.01,2013-04-24 17:30:00,
2013-04-24 12:35:00,49.4,32.0,30.15,SW,222,9.0,12.0,51,0.00,,SKC,0.00,VWS V14.01,2013-04-24 17:35:00,
2013-04-24 12:40:00,49.4,30.5,30.15,West,261,11.0,17.0,48,0.00,,SKC,0.00,VWS V14.01,2013-04-24 17:40:00,
2013-04-24 12:45:00,49.4,32.0,30.15,SW,230,12.0,15.0,51,0.00,,SKC,0.00,VWS V14.01,2013-04-24 17:45:00,
2013-04-24 12:50:00,49.8,31.9,30.15,WSW,238,17.0,21.0,50,0.00,,SKC,0.00,VWS V14.01,2013-04-24 17:50:00,
2013-04-24 12:55:00,50.6,32.7,30.15,SW,222,11.0,14.0,50,0.00,,SKC,0.00,VWS V14.01,2013-04-24 17:55:00,
2013-04-24 13:00:00,50.7,31.7,30.15,West,269,15.0,16.0,48,0.00,,SKC,0.00,VWS V14.01,2013-04-24 18:00:00,
2013-04-24 13:05:00,50.6,30.6,30.14,SW,220,14.0,15.0,46,0.00,,SKC,0.00,VWS V14.01,2013-04-24 18:05:00,
2013-04-24 13:11:00,50.8,31.8,30.14,WSW,242,11.0,12.0,48,0.00,,SKC,0.00,VWS V14.01,2013-04-24 18:11:00,
2013-04-24 13:16:00,51.1,31.1,30.14,SW,222,13.0,13.0,46,0.00,,SKC,0.00,VWS V14.01,2013-04-24 18:16:00,
2013-04-24 13:21:00,51.3,30.1,30.14,WSW,241,10.0,16.0,44,0.00,,SKC,0.00,VWS V14.01,2013-04-24 18:21:00,
2013-04-24 13:26:00,52.0,32.4,30.14,SW,235,16.0,16.0,47,0.00,,SKC,0.00,VWS V14.01,2013-04-24 18:26:00,
2013-04-24 13:31:00,52.0,30.2,30.14,SW,230,13.0,13.0,43,0.00,,SKC,0.00,VWS V14.01,2013-04-24 18:31:00,
2013-04-24 13:36:00,52.3,31.0,30.14,West,279,10.0,13.0,44,0.00,,SKC,0.00,VWS V14.01,2013-04-24 18:36:00,
2013-04-24 13:41:00,52.4,30.0,30.13,WSW,237,18.0,21.0,42,0.00,,SKC,0.00,VWS V14.01,2013-04-24 18:41:00,
2013-04-24 13:46:00,52.4,30.0,30.14,West,263,13.0,13.0,42,0.00,,SKC,0.00,VWS V14.01,2013-04-24 18:46:00,
2013-04-24 13:51:00,52.7,32.0,30.13,WSW,247,16.0,16.0,45,0.00,,SKC,0.00,VWS V14.01,2013-04-24 18:51:00,
2013-04-24 13:56:00,53.1,30.0,30.13,SW,223,10.0,16.0,41,0.00,,SKC,0.00,VWS V14.01,2013-04-24 18:56:00,
2013-04-24 14:01:00,53.8,32.4,30.13,SW,232,12.0,12.0,44,0.00,,SKC,0.00,VWS V14.01,2013-04-24 19:01:00,
2013-04-24 14:06:00,53.7,30.0,30.13,WSW,251,13.0,13.0,40,0.00,,SKC,0.00,VWS V14.01,2013-04-24 19:06:00,
2013-04-24 14:11:00,53.7,30.0,30.13,West,259,14.0,15.0,40,0.00,,SKC,0.00,VWS V14.01,2013-04-24 19:11:00,
2013-04-24 14:16:00,54.2,31.0,30.12,WSW,244,14.0,14.0,41,0.00,,SKC,0.00,VWS V14.01,2013-04-24 19:16:00,
2013-04-24 14:21:00,54.1,31.5,30.12,SW,229,11.0,15.0,42,0.00,,SKC,0.00,VWS V14.01,2013-04-24 19:21:00,
2013-04-24 14:26:00,54.1,29.1,30.12,WSW,254,8.0,12.0,38,0.00,,SKC,0.00,VWS V14.01,2013-04-24 19:26:00,
2013-04-24 14:31:00,54.2,28.5,30.12,WSW,255,15.0,18.0,37,0.00,,SKC,0.00,VWS V14.01,2013-04-24 19:31:00,
2013-04-24 14:36:00,54.3,29.2,30.12,SW,221,13.0,14.0,38,0.00,,SKC,0.00,VWS V14.01,2013-04-24 19:36:00,
2013-04-24 14:41:00,54.5,29.4,30.11,SW,227,19.0,24.0,38,0.00,,SKC,0.00,VWS V14.01,2013-04-24 19:41:00,
2013-04-24 14:46:00,54.8,30.3,30.11,SSW,204,17.0,25.0,39,0.00,,SKC,0.00,VWS V14.01,2013-04-24 19:46:00,
2013-04-24 14:51:00,55.2,27.3,30.11,SW,223,12.0,12.0,34,0.00,,SKC,0.00,VWS V14.01,2013-04-24 19:51:00,
2013-04-24 14:56:00,55.3,28.8,30.10,SW,235,9.0,13.0,36,0.00,,SKC,0.00,VWS V14.01,2013-04-24 19:56:00,
2013-04-24 15:01:00,55.7,31.1,30.10,WSW,239,12.0,14.0,39,0.00,,SKC,0.00,VWS V14.01,2013-04-24 20:01:00,
2013-04-24 15:06:00,55.9,30.0,30.10,SW,235,12.0,16.0,37,0.00,,SKC,0.00,VWS V14.01,2013-04-24 20:06:00,
2013-04-24 15:11:00,55.9,30.0,30.10,West,265,7.0,14.0,37,0.00,,SKC,0.00,VWS V14.01,2013-04-24 20:11:00,
2013-04-24 15:16:00,56.1,30.9,30.10,West,265,15.0,17.0,38,0.00,,SKC,0.00,VWS V14.01,2013-04-24 20:16:00,
2013-04-24 15:21:00,56.4,29.8,30.10,West,280,17.0,25.0,36,0.00,,SKC,0.00,VWS V14.01,2013-04-24 20:21:00,
2013-04-24 15:26:00,56.4,31.1,30.09,West,261,6.0,13.0,38,0.00,,SKC,0.00,VWS V14.01,2013-04-24 20:26:00,
2013-04-24 15:31:00,56.8,31.5,30.09,SW,234,19.0,19.0,38,0.00,,SKC,0.00,VWS V14.01,2013-04-24 20:31:00,
2013-04-24 15:36:00,57.5,32.1,30.08,WSW,254,7.0,11.0,38,0.00,,SKC,0.00,VWS V14.01,2013-04-24 20:36:00,
2013-04-24 15:42:00,57.5,31.5,30.09,West,269,10.0,13.0,37,0.00,,SKC,0.00,VWS V14.01,2013-04-24 20:42:00,
2013-04-24 15:47:00,57.3,29.9,30.08,WSW,246,11.0,11.0,35,0.00,,SKC,0.00,VWS V14.01,2013-04-24 20:47:00,
2013-04-24 15:52:00,57.1,30.4,30.08,WSW,251,15.0,18.0,36,0.00,,SKC,0.00,VWS V14.01,2013-04-24 20:52:00,
2013-04-24 15:57:00,57.5,30.1,30.08,WSW,250,7.0,12.0,35,0.00,,SKC,0.00,VWS V14.01,2013-04-24 20:57:00,
2013-04-24 16:02:00,57.6,31.5,30.07,WSW,246,14.0,15.0,37,0.00,,SKC,0.00,VWS V14.01,2013-04-24 21:02:00,
2013-04-24 16:07:00,57.7,32.3,30.07,WSW,252,12.0,17.0,38,0.00,,SKC,0.00,VWS V14.01,2013-04-24 21:07:00,
2013-04-24 16:12:00,58.3,32.2,30.07,WSW,254,11.0,14.0,37,0.00,,SKC,0.00,VWS V14.01,2013-04-24 21:12:00,
2013-04-24 16:17:00,58.2,31.4,30.07,WSW,253,12.0,18.0,36,0.00,,SKC,0.00,VWS V14.01,2013-04-24 21:17:00,
2013-04-24 16:22:00,57.4,31.4,30.07,WNW,284,12.0,12.0,37,0.00,,SKC,0.00,VWS V14.01,2013-04-24 21:22:00,
2013-04-24 16:27:00,58.1,32.0,30.06,SW,229,15.0,15.0,37,0.00,,SKC,0.00,VWS V14.01,2013-04-24 21:27:00,
2013-04-24 16:32:00,58.4,31.6,30.06,West,279,11.0,13.0,36,0.00,,SKC,0.00,VWS V14.01,2013-04-24 21:32:00,
2013-04-24 16:37:00,58.4,31.6,30.06,West,266,11.0,13.0,36,0.00,,SKC,0.00,VWS V14.01,2013-04-24 21:37:00,
2013-04-24 16:42:00,58.7,30.4,30.06,West,261,11.0,13.0,34,0.00,,SKC,0.00,VWS V14.01,2013-04-24 21:42:00,
2013-04-24 16:47:00,58.7,31.8,30.06,WSW,240,13.0,18.0,36,0.00,,SKC,0.00,VWS V14.01,2013-04-24 21:47:00,
2013-04-24 16:52:00,59.1,32.9,30.05,West,281,11.0,12.0,37,0.00,,SKC,0.00,VWS V14.01,2013-04-24 21:52:00,
2013-04-24 16:57:00,59.4,31.8,30.06,West,271,12.0,18.0,35,0.00,,SKC,0.00,VWS V14.01,2013-04-24 21:57:00,
2013-04-24 17:02:00,58.7,31.1,30.05,WSW,257,11.0,15.0,35,0.00,,SKC,0.00,VWS V14.01,2013-04-24 22:02:00,
2013-04-24 17:07:00,58.2,30.7,30.05,West,279,14.0,17.0,35,0.00,,SKC,0.00,VWS V14.01,2013-04-24 22:07:00,
2013-04-24 17:12:00,58.1,31.3,30.05,WSW,257,12.0,17.0,36,0.00,,SKC,0.00,VWS V14.01,2013-04-24 22:12:00,
2013-04-24 17:17:00,58.1,31.3,30.05,West,267,10.0,16.0,36,0.00,,SKC,0.00,VWS V14.01,2013-04-24 22:17:00,
2013-04-24 17:22:00,58.0,31.9,30.05,WSW,238,17.0,19.0,37,0.00,,SKC,0.00,VWS V14.01,2013-04-24 22:22:00,
2013-04-24 17:27:00,58.0,31.2,30.05,West,261,11.0,14.0,36,0.00,,SKC,0.00,VWS V14.01,2013-04-24 22:27:00,
2013-04-24 17:32:00,57.8,31.7,30.06,West,268,16.0,22.0,37,0.00,,SKC,0.00,VWS V14.01,2013-04-24 22:32:00,
2013-04-24 17:37:00,57.1,31.1,30.06,West,274,11.0,18.0,37,0.00,,SKC,0.00,VWS V14.01,2013-04-24 22:37:00,
2013-04-24 17:42:00,56.7,31.4,30.06,West,261,14.0,21.0,38,0.00,,SKC,0.00,VWS V14.01,2013-04-24 22:42:00,
2013-04-24 17:47:00,56.6,32.0,30.06,West,279,12.0,15.0,39,0.00,,SKC,0.00,VWS V14.01,2013-04-24 22:47:00,
2013-04-24 17:52:00,56.8,32.1,30.06,West,270,10.0,19.0,39,0.00,,SKC,0.00,VWS V14.01,2013-04-24 22:52:00,
2013-04-24 17:57:00,56.4,32.4,30.06,West,265,9.0,16.0,40,0.00,,SKC,0.00,VWS V14.01,2013-04-24 22:57:00,
2013-04-24 18:02:00,56.1,32.7,30.06,West,267,11.0,16.0,41,0.00,,SKC,0.00,VWS V14.01,2013-04-24 23:02:00,
2013-04-24 18:07:00,56.0,33.2,30.06,WSW,257,9.0,12.0,42,0.00,,SKC,0.00,VWS V14.01,2013-04-24 23:07:00,
2013-04-24 18:12:00,55.9,33.2,30.06,West,273,6.0,11.0,42,0.00,,SKC,0.00,VWS V14.01,2013-04-24 23:12:00,
2013-04-24 18:17:00,55.7,33.6,30.07,WSW,249,12.0,13.0,43,0.00,,SKC,0.00,VWS V14.01,2013-04-24 23:17:00,
2013-04-24 18:22:00,55.6,32.9,30.07,West,277,10.0,15.0,42,0.00,,SKC,0.00,VWS V14.01,2013-04-24 23:22:00,
2013-04-24 18:27:00,55.5,33.4,30.07,West,265,12.0,15.0,43,0.00,,SKC,0.00,VWS V14.01,2013-04-24 23:27:00,
2013-04-24 18:32:00,55.3,33.2,30.07,West,279,12.0,19.0,43,0.00,,SKC,0.00,VWS V14.01,2013-04-24 23:32:00,
2013-04-24 18:37:00,55.0,34.6,30.08,West,281,13.0,16.0,46,0.00,,SKC,0.00,VWS V14.01,2013-04-24 23:37:00,
2013-04-24 18:42:00,54.6,34.8,30.10,WNW,283,10.0,22.0,47,0.00,,SKC,0.00,VWS V14.01,2013-04-24 23:42:00,
2013-04-24 18:47:00,53.2,37.0,30.10,West,267,23.0,33.0,54,0.00,,SKC,0.00,VWS V14.01,2013-04-24 23:47:00,
2013-04-24 18:52:00,50.6,38.5,30.12,West,276,15.0,24.0,63,0.00,,SKC,0.00,VWS V14.01,2013-04-24 23:52:00,
2013-04-24 18:57:00,48.8,39.1,30.13,West,262,15.0,20.0,69,0.01,,SKC,0.01,VWS V14.01,2013-04-24 23:57:00,
2013-04-24 19:03:00,47.9,39.7,30.12,West,276,10.0,10.0,73,0.01,,SKC,0.01,VWS V14.01,2013-04-25 00:03:00,
2013-04-24 19:08:00,47.7,40.5,30.13,West,281,11.0,13.0,76,0.01,,SKC,0.01,VWS V14.01,2013-04-25 00:08:00,
2013-04-24 19:13:00,47.7,40.5,30.13,West,277,12.0,14.0,76,0.02,,SKC,0.02,VWS V14.01,2013-04-25 00:13:00,
2013-04-24 19:18:00,47.7,40.8,30.12,WNW,288,11.0,11.0,77,0.02,,SKC,0.02,VWS V14.01,2013-04-25 00:18:00,
2013-04-24 19:23:00,47.8,41.0,30.12,WNW,297,7.0,7.0,77,0.02,,SKC,0.02,VWS V14.01,2013-04-25 00:23:00,
2013-04-24 19:28:00,47.9,41.0,30.13,WNW,296,6.0,6.0,77,0.02,,SKC,0.02,VWS V14.01,2013-04-25 00:28:00,
2013-04-24 19:33:00,48.1,41.2,30.13,NW,317,8.0,10.0,77,0.02,,SKC,0.02,VWS V14.01,2013-04-25 00:33:00,
2013-04-24 19:38:00,48.1,40.6,30.13,NW,312,11.0,15.0,75,0.02,,SKC,0.02,VWS V14.01,2013-04-25 00:38:00,
2013-04-24 19:43:00,48.0,40.1,30.12,WNW,294,13.0,13.0,74,0.02,,SKC,0.02,VWS V14.01,2013-04-25 00:43:00,
2013-04-24 19:48:00,47.8,39.6,30.12,NW,306,10.0,11.0,73,0.02,,SKC,0.02,VWS V14.01,2013-04-25 00:48:00,
2013-04-24 19:53:00,47.6,39.4,30.12,WNW,303,9.0,10.0,73,0.02,,SKC,0.02,VWS V14.01,2013-04-25 00:53:00,
2013-04-24 19:58:00,47.5,39.3,30.12,WNW,294,5.0,6.0,73,0.01,,SKC,0.02,VWS V14.01,2013-04-25 00:58:00,
2013-04-24 20:03:00,47.2,39.3,30.13,WNW,294,3.0,5.0,74,0.01,,SKC,0.02,VWS V14.01,2013-04-25 01:03:00,
2013-04-24 20:08:00,46.9,39.4,30.13,WNW,295,7.0,7.0,75,0.01,,SKC,0.02,VWS V14.01,2013-04-25 01:08:00,
2013-04-24 20:13:00,46.7,39.2,30.13,WNW,294,4.0,9.0,75,0.00,,SKC,0.02,VWS V14.01,2013-04-25 01:13:00,
2013-04-24 20:18:00,46.5,39.0,30.14,WNW,293,5.0,6.0,75,0.00,,SKC,0.02,VWS V14.01,2013-04-25 01:18:00,
2013-04-24 20:23:00,46.4,38.6,30.14,WNW,290,5.0,6.0,74,0.00,,SKC,0.02,VWS V14.01,2013-04-25 01:23:00,
2013-04-24 20:28:00,46.2,38.0,30.14,WNW,288,3.0,4.0,73,0.00,,SKC,0.02,VWS V14.01,2013-04-25 01:28:00,
2013-04-24 20:33:00,46.0,37.8,30.14,WNW,288,4.0,5.0,73,0.00,,SKC,0.02,VWS V14.01,2013-04-25 01:33:00,
2013-04-24 20:38:00,45.5,37.7,30.14,WNW,288,3.0,5.0,74,0.00,,SKC,0.02,VWS V14.01,2013-04-25 01:38:00,
2013-04-24 20:43:00,45.2,37.8,30.14,WNW,286,6.0,7.0,75,0.00,,SKC,0.02,VWS V14.01,2013-04-25 01:43:00,
2013-04-24 20:48:00,45.0,37.6,30.15,WNW,285,5.0,6.0,75,0.00,,SKC,0.02,VWS V14.01,2013-04-25 01:48:00,
2013-04-24 20:53:00,44.6,37.2,30.15,WNW,285,4.0,6.0,75,0.00,,SKC,0.02,VWS V14.01,2013-04-25 01:53:00,
2013-04-24 20:58:00,44.3,37.2,30.15,WNW,285,5.0,6.0,76,0.00,,SKC,0.02,VWS V14.01,2013-04-25 01:58:00,
2013-04-24 21:03:00,44.0,37.3,30.16,West,281,5.0,6.0,77,0.00,,SKC,0.02,VWS V14.01,2013-04-25 02:03:00,
2013-04-24 21:08:00,44.2,37.5,30.16,WNW,287,9.0,9.0,77,0.00,,SKC,0.02,VWS V14.01,2013-04-25 02:08:00,
2013-04-24 21:13:00,44.2,37.1,30.17,West,281,4.0,6.0,76,0.00,,SKC,0.02,VWS V14.01,2013-04-25 02:13:00,
2013-04-24 21:18:00,44.2,37.1,30.16,West,281,4.0,4.0,76,0.00,,SKC,0.02,VWS V14.01,2013-04-25 02:18:00,
2013-04-24 21:23:00,44.1,37.0,30.17,West,280,4.0,4.0,76,0.00,,SKC,0.02,VWS V14.01,2013-04-25 02:23:00,
2013-04-24 21:28:00,43.8,36.7,30.17,West,279,7.0,10.0,76,0.00,,SKC,0.02,VWS V14.01,2013-04-25 02:28:00,
2013-04-24 21:33:00,43.7,36.6,30.17,West,279,5.0,5.0,76,0.00,,SKC,0.02,VWS V14.01,2013-04-25 02:33:00,
2013-04-24 21:38:00,43.6,36.5,30.17,West,279,3.0,5.0,76,0.00,,SKC,0.02,VWS V14.01,2013-04-25 02:38:00,
2013-04-24 21:43:00,43.5,36.8,30.18,West,279,3.0,7.0,77,0.00,,SKC,0.02,VWS V14.01,2013-04-25 02:43:00,
2013-04-24 21:48:00,43.4,36.7,30.19,West,279,4.0,4.0,77,0.00,,SKC,0.02,VWS V14.01,2013-04-25 02:48:00,
2013-04-24 21:53:00,43.3,36.6,30.19,West,279,3.0,5.0,77,0.00,,SKC,0.02,VWS V14.01,2013-04-25 02:53:00,
2013-04-24 21:58:00,43.1,36.4,30.19,West,279,4.0,6.0,77,0.00,,SKC,0.02,VWS V14.01,2013-04-25 02:58:00,
2013-04-24 22:03:00,43.0,36.3,30.20,West,279,4.0,6.0,77,0.00,,SKC,0.02,VWS V14.01,2013-04-25 03:03:00,
2013-04-24 22:08:00,42.8,36.1,30.20,WNW,283,4.0,5.0,77,0.00,,SKC,0.02,VWS V14.01,2013-04-25 03:08:00,
2013-04-24 22:13:00,42.7,36.0,30.20,WNW,287,5.0,5.0,77,0.00,,SKC,0.02,VWS V14.01,2013-04-25 03:13:00,
2013-04-24 22:18:00,42.5,35.5,30.20,WNW,288,5.0,6.0,76,0.00,,SKC,0.02,VWS V14.01,2013-04-25 03:18:00,
2013-04-24 22:23:00,42.3,35.3,30.21,WNW,288,2.0,5.0,76,0.00,,SKC,0.02,VWS V14.01,2013-04-25 03:23:00,
2013-04-24 22:28:00,42.0,35.0,30.21,WNW,288,2.0,3.0,76,0.00,,SKC,0.02,VWS V14.01,2013-04-25 03:28:00,
2013-04-24 22:33:00,41.7,35.0,30.21,WNW,288,2.0,5.0,77,0.00,,SKC,0.02,VWS V14.01,2013-04-25 03:33:00,
2013-04-24 22:38:00,41.5,34.8,30.21,WNW,288,2.0,2.0,77,0.00,,SKC,0.02,VWS V14.01,2013-04-25 03:38:00,
2013-04-24 22:43:00,41.2,34.5,30.21,WNW,288,1.0,1.0,77,0.00,,SKC,0.02,VWS V14.01,2013-04-25 03:43:00,
2013-04-24 22:48:00,40.8,34.2,30.22,WNW,288,0.0,0.0,77,0.00,,SKC,0.02,VWS V14.01,2013-04-25 03:48:00,
2013-04-24 22:53:00,40.5,34.2,30.22,WNW,288,1.0,1.0,78,0.00,,SKC,0.02,VWS V14.01,2013-04-25 03:53:00,
2013-04-24 22:59:00,40.3,34.0,30.22,WNW,288,0.0,0.0,78,0.00,,SKC,0.02,VWS V14.01,2013-04-25 03:59:00,
2013-04-24 23:01:00,40.2,33.9,30.22,WNW,288,0.0,0.0,78,0.00,,SKC,0.02,VWS V14.01,2013-04-25 04:01:00,
2013-04-24 23:02:00,40.2,33.9,30.21,WNW,288,0.0,0.0,78,0.00,,SKC,0.02,VWS V14.01,2013-04-25 04:02:00,
2013-04-24 23:03:00,40.1,33.8,30.22,WNW,288,0.0,0.0,78,0.00,,SKC,0.02,VWS V14.01,2013-04-25 04:03:00,
2013-04-24 23:04:00,40.1,33.8,30.22,WNW,288,0.0,0.0,78,0.00,,SKC,0.02,VWS V14.01,2013-04-25 04:04:00,
2013-04-24 23:05:00,40.1,33.8,30.21,WNW,288,0.0,0.0,78,0.00,,SKC,0.02,VWS V14.01,2013-04-25 04:05:00,
2013-04-24 23:10:00,39.9,33.9,30.21,WNW,288,0.0,0.0,79,0.00,,SKC,0.02,VWS V14.01,2013-04-25 04:10:00,
2013-04-24 23:15:00,39.8,33.8,30.21,WNW,288,0.0,0.0,79,0.00,,SKC,0.02,VWS V14.01,2013-04-25 04:15:00,
2013-04-24 23:20:00,39.7,33.7,30.21,WNW,288,0.0,0.0,79,0.00,,SKC,0.02,VWS V14.01,2013-04-25 04:20:00,
2013-04-24 23:25:00,39.8,33.8,30.21,WNW,288,0.0,0.0,79,0.00,,SKC,0.02,VWS V14.01,2013-04-25 04:25:00,
2013-04-24 23:30:00,39.8,34.1,30.22,WNW,288,0.0,0.0,80,0.00,,SKC,0.02,VWS V14.01,2013-04-25 04:30:00,
2013-04-24 23:35:00,39.8,34.1,30.22,WNW,288,0.0,0.0,80,0.00,,SKC,0.02,VWS V14.01,2013-04-25 04:35:00,
2013-04-24 23:40:00,39.6,34.0,30.22,WNW,288,0.0,0.0,80,0.00,,SKC,0.02,VWS V14.01,2013-04-25 04:40:00,
2013-04-24 23:45:00,39.3,34.0,30.22,WNW,288,0.0,0.0,81,0.00,,SKC,0.02,VWS V14.01,2013-04-25 04:45:00,
2013-04-24 23:50:00,38.7,33.4,30.22,WNW,288,1.0,1.0,81,0.00,,SKC,0.02,VWS V14.01,2013-04-25 04:50:00,
2013-04-24 23:55:00,38.4,33.4,30.22,WNW,288,0.0,0.0,82,0.00,,SKC,0.02,VWS V14.01,2013-04-25 04:55:00,